Tiempo atmosférico en la estación meteorológica de Padrón, A Coruña (100 m.)



Fecha
DESCASC
Temp. máxima en grados centígrados (hora)
DESCASC
Temp. mínima en grados centígrados (hora)
DESCASC
Temp. media en grados centígrados
DESCASC
Racha de viento máxima en m/sg (hora)
DESCASC
Velocidad máxima media en intervalos de 10 minutos(hora)
DESCASC
Precipitaciones diarias en mm
DESCASC
Precipitaciones de 00:00 a 06:00 en mm
DESCASC
Precipitaciones de 06:00 a 12:00 en mm
DESCASC
Precipitaciones de 12:00 a 18:00 en mm
DESCASC
Precipitaciones de 18:00 a 24:00 en mm
DESCASC
16-06-2019 25.2 (17:10) 6.4 (07:00) 15.8 6.39 (09:10) 4.44 (09:50) 0 0 0 0 0
15-06-2019 20.6 (17:10) 9.1 (07:10) 14.9 7.22 (14:50) 2.78 (14:40) 0 0 0 0 0
14-06-2019 20.5 (15:50) 6 (07:00) 13.3 9.72 (17:40) 5 (09:50) 0 0 0 0 0
13-06-2019 17.7 (13:10) 5.7 (00:00) 11.7 5 (07:10) 3.61 (07:10) 0 0 0 0 0
12-06-2019 17 (17:40) 5.9 (00:00) 11.5 5 (18:30) 3.33 (08:30) 0.1 0 0 0 0.1
11-06-2019 19.6 (15:20) 8.7 (00:00) 14.2 10.56 (13:10) 5.83 (13:10) 0 0 0 0 0
10-06-2019 18.3 (15:40) 6.2 (00:00) 12.2 6.67 (09:30) 5 (09:30) 0 0 0 0 0
09-06-2019 20.3 (14:10) 8.2 (00:00) 14.2 5.83 (09:30) 3.89 (09:20) 0 0 0 0 0
08-06-2019 18 (17:10) 4.3 (00:00) 11.2 6.39 (09:20) 4.72 (07:40) 0 0 0 0 0
07-06-2019 17.8 (16:50) 7.1 (00:00) 12.4 8.61 (17:10) 3.89 (16:10) 4.4 4.4 0 0 0
06-06-2019 14.6 (16:40) 9.4 (00:00) 12 17.78 (14:20) 7.5 (15:20) 13.2 4.4 1.4 5.6 1.8
05-06-2019 19.1 (15:50) 8.3 (00:00) 13.7 10.28 (14:50) 3.61 (15:30) 0.3 0 0 0 0.3
04-06-2019 19.5 (17:20) 12.2 (00:00) 15.8 9.44 (08:00) 3.61 (08:00) 2.4 0 2.4 0 0
03-06-2019 18.5 (15:50) 13.7 (00:00) 16.1 8.61 (16:30) 2.78 (16:30) 4.8 0.3 3.8 0.7 0
02-06-2019 23.7 (15:20) 9.8 (00:00) 16.8 5.56 (14:30) 2.78 (06:50) 0 0 0 0 0
01-06-2019 30.8 (15:20) 10.7 (00:00) 20.7 6.94 (08:20) 4.72 (04:00) 0 0 0 0 0
31-05-2019 33.9 (14:40) 13.8 (00:00) 23.9 9.44 (16:00) 5.56 (07:00) 0 0 0 0 0
30-05-2019 32.4 (17:30) 11.9 (00:00) 22.2 7.22 (00:50) 5 (00:20) 0 0 0 0 0
29-05-2019 28.4 (16:20) 8.8 (00:00) 18.6 11.11 (13:00) 7.22 (13:40) 0 0 0 0 0
28-05-2019 22.8 (16:40) 8.3 (00:00) 15.5 11.94 (13:40) 6.94 (13:40) 0 0 0 0 0
27-05-2019 22.2 (15:10) 11.4 (00:00) 16.8 10.83 (23:50) 5.28 (04:30) 0 0 0 0 0
26-05-2019 25.1 (16:20) 9 (00:00) 17.1 10.28 (11:00) 7.22 (11:00) 0 0 0 0 0
25-05-2019 23.8 (17:30) 10 (00:00) 16.9 10.83 (10:40) 6.67 (15:40) 0 0 0 0 0
24-05-2019 20.9 (16:30) 7.3 (00:00) 14.1 13.61 (16:20) 7.22 (14:10) 0 0 0 0 0
23-05-2019 21.8 (15:50) 10.8 (00:00) 16.3 6.39 (21:40) 2.22 (05:30) 0 0 0 0 0
22-05-2019 23.6 (16:20) 8.1 (00:00) 15.9 7.22 (15:10) 4.72 (06:30) 0 0 0 0 0
21-05-2019 25.2 (16:30) 8 (07:10) 16.6 6.11 (16:30) 3.33 (06:50) 0 0 0 0 0

Gráficas

Temp. máximas Temp. mínimas Temp. medias Precipitaciones Rachas de viento máximas Velocidades máximas media en intervalos de 10 minutos

Datos horarios

Fecha y hora oficial Temperatura (ºC) Velocidad del viento (km/h) Dirección del viento Racha (km/h) Dirección de racha Precipitación (mm) Presión (hPa) Tendencia (hPa) Humedad (%)
2019-06-19 23:00:00 14.8 0 Calma 6 Oeste 0 -- -- 86
2019-06-19 22:00:00 15.5 0 Calma 13 Oeste 0 -- -- 77
2019-06-19 21:00:00 16.9 5 Oeste 19 Oeste 0 -- -- 73
2019-06-19 20:00:00 18.4 5 Oeste 18 Oeste 0 -- -- 69
2019-06-19 19:00:00 19.8 7 Oeste 24 Oeste 0 -- -- 64
2019-06-19 18:00:00 19 9 Oeste 25 Oeste 0 -- -- 70
2019-06-19 17:00:00 19.7 9 Oeste 25 Oeste 0 -- -- 72
2019-06-19 16:00:00 18.8 8 Oeste 26 Oeste 0 -- -- 79
2019-06-19 15:00:00 18.7 10 Oeste 25 Oeste 0 -- -- 83
2019-06-19 14:00:00 17 9 Oeste 24 Oeste 0 -- -- 94
2019-06-19 13:00:00 16.3 7 Oeste 24 Oeste 0 -- -- 94
2019-06-19 12:00:00 16.2 5 Oeste 19 Sur 0.1 -- -- 94
2019-06-19 11:00:00 16 5 Oeste 15 Sur 0.3 -- -- 94
2019-06-19 10:00:00 15.6 4 Sudoeste 13 Sudoeste 0.2 -- -- 94
2019-06-19 09:00:00 14.9 2 Oeste 11 Oeste 0.3 -- -- 94
2019-06-19 08:00:00 14.6 3 Oeste 10 Sudoeste 0 -- -- 94
2019-06-19 07:00:00 14.6 2 Noroeste 12 Oeste 0 -- -- 94
2019-06-19 06:00:00 14.7 2 Oeste 18 Oeste 0 -- -- 94
2019-06-19 05:00:00 15 8 Oeste 18 Oeste 2.1 -- -- 94
2019-06-19 04:00:00 14.9 6 Oeste 19 Oeste 0.1 -- -- 94
2019-06-19 03:00:00 14.9 9 Oeste 19 Oeste 0 -- -- 94
2019-06-19 02:00:00 15.1 5 Oeste 22 Oeste 0 -- -- 94
2019-06-19 01:00:00 15.2 10 Oeste 30 Oeste 2 -- -- 94
2019-06-19 00:00:00 15.4 9 Oeste 23 Oeste 0.4 -- -- 94
2019-06-18 23:00:00 15.4 8 Oeste 28 Oeste 1.3 -- -- 94
2019-06-18 22:00:00 15.5 9 Oeste 35 Sudoeste 2.6 -- -- 94
2019-06-18 21:00:00 16.1 15 Oeste 47 Sudoeste 0 -- -- 86
2019-06-18 20:00:00 16.9 19 Oeste 46 Oeste 0 -- -- 83
2019-06-18 19:00:00 17.2 13 Oeste 40 Oeste 0 -- -- 83
2019-06-18 18:00:00 17 18 Oeste 41 Oeste 0 -- -- 83
2019-06-18 17:00:00 16.8 16 Oeste 53 Sudoeste 0.3 -- -- 91
2019-06-18 16:00:00 15.8 15 Oeste 38 Oeste 2.6 -- -- 93
2019-06-18 15:00:00 16.4 9 Oeste 35 Sudoeste 1.7 -- -- 91
2019-06-18 14:00:00 17.4 6 Oeste 26 Sudoeste 0 -- -- 80
2019-06-18 13:00:00 17.5 6 Oeste 26 Oeste 0 -- -- 80
2019-06-18 12:00:00 16.8 5 Oeste 19 Noroeste 0 -- -- 86
2019-06-18 11:00:00 14.9 0 Calma 13 Nordeste 0 -- -- 92
2019-06-18 10:00:00 13.2 6 Este 11 Este 1.1 -- -- 92
2019-06-18 09:00:00 13 0 Calma 12 Nordeste 0.2 -- -- 93
2019-06-18 08:00:00 12.6 8 Nordeste 12 Nordeste 1.9 -- -- 93
2019-06-18 07:00:00 12.6 6 Este 9 Nordeste 0.8 -- -- 92
2019-06-18 06:00:00 12.7 0 Calma 5 Este 0.7 -- -- 91
2019-06-18 05:00:00 12.6 0 Calma 8 Este 0.5 -- -- 91
2019-06-18 04:00:00 12.8 3 Este 6 Nordeste 0.7 -- -- 90
2019-06-18 03:00:00 13 4 Nordeste 15 Este 0 -- -- 86
2019-06-18 02:00:00 13.3 12 Este 17 Este 0 -- -- 81
2019-06-18 01:00:00 13.4 15 Este 20 Este 0 -- -- 77
2019-06-18 00:00:00 14 4 Este 15 Este 0 -- -- 74
2019-06-17 23:00:00 14 11 Este 18 Este 0 -- -- 72
2019-06-17 22:00:00 14.8 0 Calma 14 Oeste 0 -- -- 68
2019-06-17 21:00:00 15.7 7 Oeste 18 Oeste 0 -- -- 68
2019-06-17 20:00:00 17.5 5 Oeste 14 Oeste 0 -- -- 68
2019-06-17 19:00:00 18.5 3 Oeste 15 Oeste 0 -- -- 66
2019-06-17 18:00:00 18.7 4 Oeste 14 Oeste 0 -- -- 68
2019-06-17 17:00:00 18.4 3 Oeste 21 Oeste 0 -- -- 70
2019-06-17 16:00:00 17.3 9 Oeste 22 Oeste 0 -- -- 69
2019-06-17 15:00:00 17.5 3 Oeste 17 Oeste 0 -- -- 69
2019-06-17 14:00:00 17.9 6 Oeste 16 Oeste 0 -- -- 69
2019-06-17 13:00:00 19 3 Oeste 11 Oeste 0 -- -- 65
2019-06-17 12:00:00 18.3 2 Noroeste 15 Este 0 -- -- 68
2019-06-17 11:00:00 16.8 7 Este 22 Este 0 -- -- 71
2019-06-17 10:00:00 13.8 11 Este 19 Este 0 -- -- 86
2019-06-17 09:00:00 12.8 8 Este 21 Este 0 -- -- 89
2019-06-17 08:00:00 11.9 7 Nordeste 14 Nordeste 0 -- -- 90
2019-06-17 07:00:00 11.5 8 Este 13 Nordeste 0 -- -- 90
2019-06-17 06:00:00 11.2 6 Nordeste 10 Nordeste 0 -- -- 90
2019-06-17 05:00:00 10.4 4 Nordeste 13 Norte 0 -- -- 90
2019-06-17 04:00:00 10.1 7 Nordeste 13 Nordeste 0 -- -- 89
2019-06-17 03:00:00 11.1 5 Nordeste 10 Nordeste 0 -- -- 85
2019-06-17 02:00:00 11.3 6 Nordeste 8 Nordeste 0 -- -- 81
2019-06-17 01:00:00 11.5 2 Nordeste 10 Nordeste 0 -- -- 79
2019-06-17 00:00:00 12.5 6 Nordeste 10 Este 0 -- -- 73
2019-06-16 23:00:00 14.1 7 Este 19 Este 0 -- -- 64
2019-06-16 22:00:00 15.9 9 Este 18 Este 0 -- -- 58
2019-06-16 21:00:00 18.2 8 Nordeste 22 Nordeste 0 -- -- 52
2019-06-16 20:00:00 20 9 Nordeste 23 Nordeste 0 -- -- 49
2019-06-16 19:00:00 22 6 Nordeste 22 Nordeste 0 -- -- 47
2019-06-16 18:00:00 23.4 4 Noroeste 19 Oeste 0 -- -- 44
2019-06-16 17:00:00 24.9 7 Oeste 17 Oeste 0 -- -- 40
2019-06-16 16:00:00 23.9 4 Oeste 13 Norte 0 -- -- 40
2019-06-16 15:00:00 23.2 3 Noroeste 15 Noroeste 0 -- -- 44
2019-06-16 14:00:00 22 3 Sudeste 20 Este 0 -- -- 46
2019-06-16 13:00:00 20.5 11 Sudeste 21 Sudeste 0 -- -- 49
2019-06-16 12:00:00 18.7 8 Este 18 Este 0 -- -- 57
2019-06-16 11:00:00 16.3 10 Este 22 Este 0 -- -- 64
2019-06-16 10:00:00 13.2 15 Este 23 Este 0 -- -- 75
2019-06-16 09:00:00 9.4 13 Este 22 Este 0 -- -- 93
2019-06-16 08:00:00 7 13 Nordeste 20 Nordeste 0 -- -- 94
2019-06-16 07:00:00 6.5 14 Este 20 Nordeste 0 -- -- 94
2019-06-16 06:00:00 7.2 14 Nordeste 20 Este 0 -- -- 93
2019-06-16 05:00:00 7.8 12 Nordeste 19 Este 0 -- -- 93
2019-06-16 04:00:00 8.5 12 Nordeste 18 Este 0 -- -- 92
2019-06-16 03:00:00 8.6 8 Este 14 Este 0 -- -- 90
2019-06-16 02:00:00 9.2 6 Nordeste 11 Nordeste 0 -- -- 87
2019-06-16 01:00:00 10.1 7 Este 12 Nordeste 0 -- -- 83
2019-06-16 00:00:00 11.2 5 Nordeste 8 Nordeste 0 -- -- 77
2019-06-15 23:00:00 12.7 0 Calma 6 Oeste 0 -- -- 70
2019-06-15 22:00:00 14.2 0 Calma 12 Oeste 0 -- -- 61
2019-06-15 21:00:00 16.5 4 Oeste 14 Oeste 0 -- -- 56
2019-06-15 20:00:00 17.8 5 Oeste 15 Sudoeste 0 -- -- 53
2019-06-15 19:00:00 18.1 2 Noroeste 19 Oeste 0 -- -- 52
2019-06-15 18:00:00 19.7 8 Oeste 21 Sudoeste 0 -- -- 46
2019-06-15 17:00:00 20.2 7 Oeste 25 Oeste 0 -- -- 48
2019-06-15 16:00:00 19.9 9 Oeste 22 Sudoeste 0 -- -- 52
2019-06-15 15:00:00 17.6 8 Oeste 26 Sudoeste 0 -- -- 55
2019-06-15 14:00:00 20.2 7 Oeste 23 Oeste 0 -- -- 51
2019-06-15 13:00:00 16.3 6 Sudoeste 20 Oeste 0 -- -- 61
2019-06-15 12:00:00 17.8 7 Sudoeste 18 Sudoeste 0 -- -- 60
2019-06-15 11:00:00 15.6 5 Oeste 18 Sudoeste 0 -- -- 68
2019-06-15 10:00:00 14.4 2 Oeste 6 Este 0 -- -- 83
2019-06-15 09:00:00 12.1 0 Calma 9 Este 0 -- -- 90
2019-06-15 08:00:00 9.9 5 Nordeste 8 Nordeste 0 -- -- 92
2019-06-15 07:00:00 9.3 3 Nordeste 5 Nordeste 0 -- -- 92
2019-06-15 06:00:00 10.2 0 Calma -- -- 0 -- -- 91
2019-06-15 05:00:00 10.6 0 Calma 2 Oeste 0 -- -- 90
2019-06-15 04:00:00 11.3 0 Calma 4 Nordeste 0 -- -- 90
2019-06-15 03:00:00 11.5 0 Calma 5 Sudoeste 0 -- -- 89
2019-06-15 02:00:00 12 0 Calma 4 Oeste 0 -- -- 89
2019-06-15 01:00:00 11.9 0 Calma 3 Oeste 0 -- -- 86
2019-06-15 00:00:00 13 2 Oeste 18 Oeste 0 -- -- 84
2019-06-14 23:00:00 13.6 7 Oeste 14 Oeste 0 -- -- 77
2019-06-14 22:00:00 13.9 7 Oeste 22 Oeste 0 -- -- 74
2019-06-14 21:00:00 14.6 8 Oeste 21 Oeste 0 -- -- 70
2019-06-14 20:00:00 15.3 10 Oeste 25 Oeste 0 -- -- 64
2019-06-14 19:00:00 16.3 13 Oeste 30 Oeste 0 -- -- 58
2019-06-14 18:00:00 17.7 13 Oeste 35 Oeste 0 -- -- 52
2019-06-14 17:00:00 18.9 13 Oeste 27 Oeste 0 -- -- 50
2019-06-14 16:00:00 18.8 9 Oeste 31 Oeste 0 -- -- 49
2019-06-14 15:00:00 18.5 11 Oeste 28 Oeste 0 -- -- 47
2019-06-14 14:00:00 19.4 7 Oeste 20 Oeste 0 -- -- 44
2019-06-14 13:00:00 17.4 3 Oeste 10 Oeste 0 -- -- 46
2019-06-14 12:00:00 16.2 4 Sudeste 19 Este 0 -- -- 49
2019-06-14 11:00:00 13.4 12 Este 24 Este 0 -- -- 75
2019-06-14 10:00:00 8.4 14 Este 24 Este 0 -- -- 95
2019-06-14 09:00:00 6.8 17 Este 24 Este 0 -- -- 95
2019-06-14 08:00:00 6.2 16 Este 25 Este 0 -- -- 95
2019-06-14 07:00:00 6.1 12 Este 17 Nordeste 0 -- -- 95
2019-06-14 06:00:00 6.4 8 Este 14 Nordeste 0 -- -- 94
2019-06-14 05:00:00 6.5 9 Nordeste 15 Nordeste 0 -- -- 94
2019-06-14 04:00:00 7 4 Nordeste 12 Este 0 -- -- 92
2019-06-14 03:00:00 7.4 6 Este 10 Este 0 -- -- 89
2019-06-14 02:00:00 8.8 6 Nordeste 13 Nordeste 0 -- -- 88
2019-06-14 01:00:00 9.3 7 Este 11 Este 0 -- -- 83
2019-06-14 00:00:00 10.9 6 Este 13 Este 0 -- -- 79
2019-06-13 23:00:00 12.3 4 Nordeste 12 Nordeste 0 -- -- 69
2019-06-13 22:00:00 13.7 3 Este 8 Nordeste 0 -- -- 66
2019-06-13 21:00:00 14.6 0 Calma 16 Nordeste 0 -- -- 61
2019-06-13 20:00:00 15.2 2 Norte 10 Norte 0 -- -- 60
2019-06-13 19:00:00 15.3 5 Norte 16 Norte 0 -- -- 58
2019-06-13 18:00:00 16.4 2 Oeste 15 Noroeste 0 -- -- 57
2019-06-13 17:00:00 15.7 3 Noroeste 14 Norte 0 -- -- 58
2019-06-13 16:00:00 16 5 Oeste 14 Oeste 0 -- -- 60
2019-06-13 15:00:00 16 5 Oeste 13 Oeste 0 -- -- 60
2019-06-13 14:00:00 15.4 2 Oeste 13 Este 0 -- -- 54
2019-06-13 13:00:00 17.3 0 Calma 11 Sudeste 0 -- -- 47
2019-06-13 12:00:00 16 6 Este 16 Este 0 -- -- 52
2019-06-13 11:00:00 13.5 8 Este 16 Este 0 -- -- 72
2019-06-13 10:00:00 8.9 10 Este 16 Este 0 -- -- 95
2019-06-13 09:00:00 7.1 8 Este 15 Este 0 -- -- 95
2019-06-13 08:00:00 6.1 7 Este 18 Nordeste 0 -- -- 95
2019-06-13 07:00:00 5.8 10 Este 17 Este 0 -- -- 95
2019-06-13 06:00:00 6 6 Nordeste 13 Este 0 -- -- 95
2019-06-13 05:00:00 5.8 5 Nordeste 11 Nordeste 0 -- -- 94
2019-06-13 04:00:00 6.7 8 Este 11 Nordeste 0 -- -- 94
2019-06-13 03:00:00 6.9 6 Nordeste 10 Este 0 -- -- 91
2019-06-13 02:00:00 7.8 4 Nordeste 8 Nordeste 0 -- -- 89
2019-06-13 01:00:00 8.5 6 Nordeste 10 Nordeste 0 -- -- 87
2019-06-13 00:00:00 9.6 5 Nordeste 9 Nordeste 0 -- -- 83
2019-06-12 23:00:00 10.9 3 Este 9 Nordeste 0 -- -- 81
2019-06-12 22:00:00 12.3 3 Este 12 Este 0 -- -- 79
2019-06-12 21:00:00 13.2 8 Este 12 Este 0 -- -- 75
2019-06-12 20:00:00 13.8 4 Este 12 Este 0 -- -- 72
2019-06-12 19:00:00 14 7 Nordeste 18 Norte 0.1 -- -- 74
2019-06-12 18:00:00 16.5 2 Noroeste 12 Oeste 0 -- -- 58
2019-06-12 17:00:00 15 0 Calma 5 Oeste 0 -- -- 63
2019-06-12 16:00:00 14 0 Calma 8 Oeste 0 -- -- 66
2019-06-12 15:00:00 14.3 0 Calma 9 Oeste 0 -- -- 63
2019-06-12 14:00:00 15.2 3 Sur 9 Sudoeste 0 -- -- 57
2019-06-12 13:00:00 15.5 4 Sudoeste 12 Sur 0 -- -- 53
2019-06-12 12:00:00 14.4 5 Sudoeste 12 Norte 0 -- -- 61
2019-06-12 11:00:00 13.6 0 Calma 13 Este 0 -- -- 72
2019-06-12 10:00:00 10.7 9 Este 15 Este 0 -- -- 88
2019-06-12 09:00:00 8.2 9 Este 15 Este 0 -- -- 95
2019-06-12 08:00:00 6.4 8 Este 12 Nordeste 0 -- -- 95
2019-06-12 07:00:00 6.2 10 Nordeste 14 Nordeste 0 -- -- 94
2019-06-12 06:00:00 6.5 4 Nordeste 15 Este 0 -- -- 94
2019-06-12 05:00:00 6.3 9 Nordeste 13 Nordeste 0 -- -- 92
2019-06-12 04:00:00 7.4 8 Nordeste 11 Nordeste 0 -- -- 92
2019-06-12 03:00:00 7.7 7 Nordeste 9 Nordeste 0 -- -- 90
2019-06-12 02:00:00 8.5 6 Nordeste 9 Nordeste 0 -- -- 86
2019-06-12 01:00:00 8.8 7 Nordeste 10 Nordeste 0 -- -- 84
2019-06-12 00:00:00 10.3 3 Nordeste 14 Nordeste 0 -- -- 78
2019-06-11 23:00:00 11.4 4 Nordeste 21 Nordeste 0 -- -- 72
2019-06-11 22:00:00 12.3 10 Nordeste 22 Nordeste 0 -- -- 64
2019-06-11 21:00:00 13.2 10 Nordeste 25 Nordeste 0 -- -- 55
2019-06-11 20:00:00 15.4 14 Nordeste 28 Este 0 -- -- 49
2019-06-11 19:00:00 17.1 10 Nordeste 25 Nordeste 0 -- -- 46
2019-06-11 18:00:00 18.1 9 Nordeste 32 Nordeste 0 -- -- 44
2019-06-11 17:00:00 18.6 15 Este 34 Este 0 -- -- 44
2019-06-11 16:00:00 18.3 16 Este 33 Este 0 -- -- 44
2019-06-11 15:00:00 18.7 15 Este 35 Este 0 -- -- 44
2019-06-11 14:00:00 18.2 18 Este 38 Este 0 -- -- 47
2019-06-11 13:00:00 16.6 20 Este 36 Este 0 -- -- 50
2019-06-11 12:00:00 14 12 Este 31 Este 0 -- -- 61
2019-06-11 11:00:00 15.5 14 Este 34 Este 0 -- -- 58
2019-06-11 10:00:00 12.1 6 Este 21 Este 0 -- -- 75
2019-06-11 09:00:00 12.3 8 Este 15 Este 0 -- -- 80
2019-06-11 08:00:00 10 6 Este 13 Este 0 -- -- 89
2019-06-11 07:00:00 8.9 4 Este 15 Nordeste 0 -- -- 89
2019-06-11 06:00:00 10.5 4 Nordeste 15 Nordeste 0 -- -- 89
2019-06-11 05:00:00 11.4 5 Nordeste 15 Nordeste 0 -- -- 80
2019-06-11 04:00:00 11.7 3 Este 7 Nordeste 0 -- -- 79
2019-06-11 03:00:00 11.9 3 Este 7 Este 0 -- -- 77
2019-06-11 02:00:00 12.1 5 Este 9 Este 0 -- -- 75
2019-06-11 01:00:00 12.3 4 Este 8 Este 0 -- -- 72
2019-06-11 00:00:00 12.7 3 Este 8 Nordeste 0 -- -- 66
2019-06-10 23:00:00 13.1 5 Nordeste 13 Nordeste 0 -- -- 64
2019-06-10 22:00:00 14 2 Este 12 Norte 0 -- -- 61
2019-06-10 21:00:00 14.6 3 Norte 16 Norte 0 -- -- 61
2019-06-10 20:00:00 15.2 3 Noroeste 17 Norte 0 -- -- 60
2019-06-10 19:00:00 16.4 2 Noroeste 13 Norte 0 -- -- 58
2019-06-10 18:00:00 16.7 2 Oeste 16 Oeste 0 -- -- 58
2019-06-10 17:00:00 17.5 5 Oeste 15 Oeste 0 -- -- 58
2019-06-10 16:00:00 17.5 4 Oeste 19 Oeste 0 -- -- 55
2019-06-10 15:00:00 16.8 2 Oeste 13 Este 0 -- -- 53
2019-06-10 14:00:00 17 5 Sudeste 17 Este 0 -- -- 51
2019-06-10 13:00:00 15.7 3 Sudeste 18 Este 0 -- -- 55
2019-06-10 12:00:00 16 11 Este 21 Este 0 -- -- 61
2019-06-10 11:00:00 13.5 13 Este 23 Este 0 -- -- 71
2019-06-10 10:00:00 11.7 15 Este 24 Este 0 -- -- 84
2019-06-10 09:00:00 8.5 12 Este 18 Este 0 -- -- 93
2019-06-10 08:00:00 7.6 12 Este 17 Este 0 -- -- 94
2019-06-10 07:00:00 6.4 11 Este 18 Este 0 -- -- 93
2019-06-10 06:00:00 7 12 Nordeste 16 Nordeste 0 -- -- 93
2019-06-10 05:00:00 7 7 Nordeste 12 Nordeste 0 -- -- 91
2019-06-10 04:00:00 7.6 6 Nordeste 10 Nordeste 0 -- -- 89
2019-06-10 03:00:00 7.4 7 Nordeste 13 Este 0 -- -- 86
2019-06-10 02:00:00 7.9 9 Nordeste 13 Nordeste 0 -- -- 83
2019-06-10 01:00:00 9.4 8 Nordeste 10 Este 0 -- -- 75
2019-06-10 00:00:00 11 5 Nordeste 14 Nordeste 0 -- -- 65
2019-06-09 23:00:00 12.8 0 Calma 16 Nordeste 0 -- -- 63
2019-06-09 22:00:00 14.3 9 Nordeste 21 Este 0 -- -- 60
2019-06-09 21:00:00 16 10 Nordeste 19 Nordeste 0 -- -- 56
2019-06-09 20:00:00 17.2 5 Norte 16 Nordeste 0 -- -- 55
2019-06-09 19:00:00 18.3 4 Norte 16 Norte 0 -- -- 53
2019-06-09 18:00:00 18 2 Norte 10 Noroeste 0 -- -- 55
2019-06-09 17:00:00 17.4 2 Noroeste 11 Sudoeste 0 -- -- 55
2019-06-09 16:00:00 18.1 0 Calma 12 Norte 0 -- -- 50
2019-06-09 15:00:00 19.8 3 Norte 17 Oeste 0 -- -- 46
2019-06-09 14:00:00 18.9 4 Oeste 16 Sudeste 0 -- -- 42
2019-06-09 13:00:00 18 2 Noroeste 14 Sudeste 0 -- -- 52
2019-06-09 12:00:00 17.1 7 Este 17 Este 0 -- -- 56
2019-06-09 11:00:00 14.7 10 Sudeste 19 Sudeste 0 -- -- 64
2019-06-09 10:00:00 13.8 12 Este 21 Este 0 -- -- 73
2019-06-09 09:00:00 11.4 8 Este 17 Este 0 -- -- 86
2019-06-09 08:00:00 9.4 10 Este 15 Nordeste 0 -- -- 92
2019-06-09 07:00:00 8.5 10 Nordeste 15 Este 0 -- -- 91
2019-06-09 06:00:00 8.8 7 Este 14 Este 0 -- -- 88
2019-06-09 05:00:00 9.5 8 Nordeste 13 Nordeste 0 -- -- 86
2019-06-09 04:00:00 9.7 7 Este 11 Este 0 -- -- 85
2019-06-09 03:00:00 9.9 0 Calma 8 Este 0 -- -- 84
2019-06-09 02:00:00 9.9 5 Nordeste 13 Nordeste 0 -- -- 83
2019-06-09 01:00:00 10.4 3 Nordeste 13 Este 0 -- -- 82
2019-06-09 00:00:00 10.8 5 Nordeste 10 Nordeste 0 -- -- 79
2019-06-08 23:00:00 12.3 2 Este 17 Nordeste 0 -- -- 72
2019-06-08 22:00:00 13 4 Nordeste 12 Este 0 -- -- 63
2019-06-08 21:00:00 14.7 10 Este 19 Este 0 -- -- 55
2019-06-08 20:00:00 15.2 12 Este 22 Este 0 -- -- 50
2019-06-08 19:00:00 16.7 6 Este 17 Este 0 -- -- 47
2019-06-08 18:00:00 17 7 Este 21 Este 0 -- -- 47
2019-06-08 17:00:00 17.4 5 Nordeste 20 Este 0 -- -- 49
2019-06-08 16:00:00 14.7 5 Norte 18 Norte 0 -- -- 60
2019-06-08 15:00:00 14.7 5 Norte 18 Norte 0 -- -- 57
2019-06-08 14:00:00 17.1 3 Nordeste 16 Norte 0 -- -- 53
2019-06-08 13:00:00 16 0 Calma 17 Este 0 -- -- 52
2019-06-08 12:00:00 15.5 6 Este 14 Este 0 -- -- 64
2019-06-08 11:00:00 12 6 Este 17 Nordeste 0 -- -- 81
2019-06-08 10:00:00 8.7 11 Este 23 Este 0 -- -- 94
2019-06-08 09:00:00 6.6 11 Este 21 Nordeste 0 -- -- 96
2019-06-08 08:00:00 4.8 17 Este 22 Este 0 -- -- 95
2019-06-08 07:00:00 4.4 14 Este 19 Nordeste 0 -- -- 95
2019-06-08 06:00:00 5 14 Nordeste 21 Nordeste 0 -- -- 95
2019-06-08 05:00:00 5.9 15 Nordeste 21 Este 0 -- -- 94
2019-06-08 04:00:00 6.6 11 Nordeste 17 Nordeste 0 -- -- 93
2019-06-08 03:00:00 7.2 10 Nordeste 16 Nordeste 0 -- -- 92
2019-06-08 02:00:00 6.9 8 Este 12 Nordeste 0 -- -- 89
2019-06-08 01:00:00 8 5 Nordeste 7 Nordeste 0 -- -- 84
2019-06-08 00:00:00 8.9 6 Nordeste 10 Nordeste 0 -- -- 79
2019-06-07 23:00:00 10.1 0 Calma 7 Sur 0 -- -- 70
2019-06-07 22:00:00 11.4 0 Calma 12 Oeste 0 -- -- 67
2019-06-07 21:00:00 14 2 Oeste 19 Oeste 0 -- -- 58
2019-06-07 20:00:00 15.2 8 Oeste 22 Oeste 0 -- -- 53
2019-06-07 19:00:00 16.2 8 Oeste 24 Oeste 0 -- -- 50
2019-06-07 18:00:00 16.7 7 Oeste 31 Oeste 0 -- -- 48
2019-06-07 17:00:00 16.7 11 Oeste 28 Oeste 0 -- -- 52
2019-06-07 16:00:00 16.4 11 Oeste 29 Oeste 0 -- -- 57
2019-06-07 15:00:00 16.2 9 Oeste 27 Sudoeste 0 -- -- 65
2019-06-07 14:00:00 15.9 9 Oeste 26 Oeste 0 -- -- 61
2019-06-07 13:00:00 16 9 Oeste 26 Oeste 0 -- -- 72
2019-06-07 12:00:00 11.4 2 Oeste 25 Oeste 0 -- -- 84
2019-06-07 11:00:00 13 7 Oeste 20 Sudoeste 0 -- -- 81
2019-06-07 10:00:00 13.2 3 Oeste 7 Oeste 0 -- -- 90
2019-06-07 09:00:00 10.4 0 Calma 6 Oeste 0 -- -- 94
2019-06-07 08:00:00 8.6 0 Calma 6 Noroeste 0 -- -- 94
2019-06-07 07:00:00 7.4 0 Calma 9 Oeste 0 -- -- 95
2019-06-07 06:00:00 7.5 2 Oeste 12 Oeste 0.4 -- -- 94
2019-06-07 05:00:00 8.3 0 Calma 9 Oeste 0.8 -- -- 94
2019-06-07 04:00:00 8.3 6 Oeste 18 Oeste 1.9 -- -- 94
2019-06-07 03:00:00 8.3 0 Calma 8 Nordeste 0.4 -- -- 93
2019-06-07 02:00:00 8.7 2 Oeste 15 Oeste 0.5 -- -- 93
2019-06-07 01:00:00 9.4 3 Oeste 25 Oeste 0.4 -- -- 93
2019-06-07 00:00:00 9.4 9 Oeste 25 Oeste 0.4 -- -- 93
2019-06-06 23:00:00 9.9 8 Oeste 20 Oeste 0 -- -- 93
2019-06-06 22:00:00 9.9 6 Oeste 17 Oeste 0 -- -- 93
2019-06-06 21:00:00 10.8 8 Oeste 30 Oeste 0.1 -- -- 93
2019-06-06 20:00:00 11 11 Oeste 40 Oeste 0.9 -- -- 92
2019-06-06 19:00:00 12.2 14 Oeste 42 Oeste 0.4 -- -- 86
2019-06-06 18:00:00 11.9 18 Oeste 52 Oeste 0 -- -- 86
2019-06-06 17:00:00 13.5 19 Oeste 49 Oeste 0 -- -- 83
2019-06-06 16:00:00 13.2 22 Oeste 59 Oeste 5.6 -- -- 94
2019-06-06 15:00:00 12.4 25 Sudoeste 64 Sudoeste 0 -- -- 92
2019-06-06 14:00:00 11.8 20 Sudoeste 46 Sudoeste 0 -- -- 92
2019-06-06 13:00:00 11.7 15 Sudoeste 44 Sur 0 -- -- 91
2019-06-06 12:00:00 12.1 9 Oeste 32 Sudoeste 0 -- -- 91
2019-06-06 11:00:00 11.4 9 Sudoeste 32 Sudoeste 0 -- -- 90
2019-06-06 10:00:00 11.3 11 Sudoeste 33 Sudoeste 0 -- -- 89
2019-06-06 09:00:00 10.7 6 Sudoeste 21 Sudoeste 0 -- -- 89
2019-06-06 08:00:00 10.5 8 Sudoeste 23 Sudoeste 0 -- -- 90
2019-06-06 07:00:00 10.2 8 Sudoeste 24 Sudoeste 1.4 -- -- 92
2019-06-06 06:00:00 10 4 Oeste 16 Sudoeste 0.5 -- -- 92
2019-06-06 05:00:00 10 3 Norte 9 Norte 1.3 -- -- 92
2019-06-06 04:00:00 9.8 5 Nordeste 11 Nordeste 0 -- -- 91
2019-06-06 03:00:00 9.9 2 Nordeste 7 Nordeste 1.2 -- -- 91
2019-06-06 02:00:00 10.3 2 Oeste 11 Nordeste 1.4 -- -- 88
2019-06-06 01:00:00 10.5 0 Calma 6 Sudoeste 0 -- -- 86
2019-06-06 00:00:00 10.4 0 Calma 6 Sudoeste 0.1 -- -- 84
2019-06-05 23:00:00 10.6 0 Calma 9 Oeste 0.2 -- -- 83
2019-06-05 22:00:00 12.5 4 Oeste 22 Oeste 0 -- -- 67
2019-06-05 21:00:00 13.8 6 Oeste 21 Oeste 0 -- -- 59
2019-06-05 20:00:00 14.2 6 Oeste 19 Sur 0 -- -- 58
2019-06-05 19:00:00 14.5 9 Oeste 22 Oeste 0 -- -- 58
2019-06-05 18:00:00 14 8 Noroeste 29 Sudoeste 0 -- -- 55
2019-06-05 17:00:00 16.7 13 Oeste 36 Oeste 0 -- -- 48
2019-06-05 16:00:00 18 9 Oeste 36 Oeste 0 -- -- 44
2019-06-05 15:00:00 18.1 11 Oeste 37 Oeste 0 -- -- 44
2019-06-05 14:00:00 16.1 9 Oeste 23 Oeste 0 -- -- 50
2019-06-05 13:00:00 15.6 4 Oeste 22 Norte 0 -- -- 51
2019-06-05 12:00:00 15.9 3 Noroeste 19 Oeste 0 -- -- 54
2019-06-05 11:00:00 15.1 3 Oeste 16 Oeste 0 -- -- 66
2019-06-05 10:00:00 13.9 3 Oeste 9 Sudoeste 0 -- -- 78
2019-06-05 09:00:00 11.4 0 Calma 4 Oeste 0 -- -- 92
2019-06-05 08:00:00 9.3 0 Calma 5 Nordeste 0 -- -- 93
2019-06-05 07:00:00 8.8 0 Calma 4 Este 0 -- -- 92
2019-06-05 06:00:00 8.8 0 Calma 4 Oeste 0 -- -- 92
2019-06-05 05:00:00 9 0 Calma 6 Este 0 -- -- 91
2019-06-05 04:00:00 8.9 6 Nordeste 10 Nordeste 0 -- -- 89
2019-06-05 03:00:00 9.2 0 Calma 2 Oeste 0 -- -- 87
2019-06-05 02:00:00 10 0 Calma 3 Oeste 0 -- -- 85
2019-06-05 01:00:00 11.1 2 Norte 6 Sudoeste 0 -- -- 78
2019-06-05 00:00:00 12.3 0 Calma 6 Oeste 0 -- -- 77
2019-06-04 23:00:00 12.5 0 Calma 12 Oeste 0 -- -- 73
2019-06-04 22:00:00 13.2 3 Oeste 17 Oeste 0 -- -- 70
2019-06-04 21:00:00 14.4 6 Oeste 22 Oeste 0 -- -- 64
2019-06-04 20:00:00 15.9 6 Oeste 21 Oeste 0 -- -- 58
2019-06-04 19:00:00 15.8 6 Oeste 27 Oeste 0 -- -- 57
2019-06-04 18:00:00 15.7 7 Noroeste 29 Oeste 0 -- -- 53
2019-06-04 17:00:00 19.2 8 Oeste 30 Oeste 0 -- -- 53
2019-06-04 16:00:00 18.6 10 Oeste 28 Oeste 0 -- -- 54
2019-06-04 15:00:00 17 8 Oeste 24 Oeste 0 -- -- 60
2019-06-04 14:00:00 18.7 9 Oeste 24 Oeste 0 -- -- 55
2019-06-04 13:00:00 18.1 8 Oeste 23 Oeste 0 -- -- 60
2019-06-04 12:00:00 15.6 5 Oeste 15 Sudoeste 0 -- -- 69
2019-06-04 11:00:00 15.8 4 Oeste 14 Oeste 0 -- -- 69
2019-06-04 10:00:00 14.2 3 Oeste 18 Oeste 0 -- -- 86
2019-06-04 09:00:00 14 3 Oeste 21 Oeste 0 -- -- 94
2019-06-04 08:00:00 13.5 13 Oeste 34 Oeste 1.6 -- -- 94
2019-06-04 07:00:00 13.3 7 Oeste 23 Sudoeste 0.8 -- -- 93
2019-06-04 06:00:00 13.9 10 Oeste 26 Sudoeste 0 -- -- 90
2019-06-04 05:00:00 13.7 9 Oeste 26 Oeste 0 -- -- 89
2019-06-04 04:00:00 13.3 10 Oeste 22 Oeste 0 -- -- 86
2019-06-04 03:00:00 13.1 6 Oeste 13 Oeste 0 -- -- 89
2019-06-04 02:00:00 13 4 Oeste 13 Oeste 0 -- -- 87
2019-06-04 01:00:00 13.4 2 Oeste 6 Oeste 0 -- -- 86
2019-06-04 00:00:00 13.8 0 Calma 9 Oeste 0 -- -- 85
2019-06-03 23:00:00 13.9 4 Oeste 16 Oeste 0 -- -- 83
2019-06-03 22:00:00 14.2 5 Oeste 21 Sudoeste 0 -- -- 80
2019-06-03 21:00:00 15.5 5 Oeste 24 Oeste 0 -- -- 75
2019-06-03 20:00:00 16.7 8 Oeste 25 Oeste 0 -- -- 72
2019-06-03 19:00:00 16.8 9 Oeste 23 Oeste 0 -- -- 72
2019-06-03 18:00:00 16.9 9 Oeste 27 Oeste 0 -- -- 79
2019-06-03 17:00:00 17 9 Oeste 31 Oeste 0 -- -- 83
2019-06-03 16:00:00 17.6 8 Oeste 21 Oeste 0 -- -- 86
2019-06-03 15:00:00 17.8 5 Oeste 18 Oeste 0 -- -- 92
2019-06-03 14:00:00 17.8 6 Oeste 24 Sudoeste 0.3 -- -- 93
2019-06-03 13:00:00 17.2 7 Sudoeste 24 Sudoeste 0.4 -- -- 93
2019-06-03 12:00:00 16.6 3 Oeste 9 Oeste 0.8 -- -- 93
2019-06-03 11:00:00 16.1 2 Oeste 8 Sudoeste 0.7 -- -- 93
2019-06-03 10:00:00 15.4 0 Calma 5 Oeste 0.7 -- -- 93
2019-06-03 09:00:00 15.2 0 Calma 8 Oeste 0.8 -- -- 93
2019-06-03 08:00:00 15.1 0 Calma 9 Oeste 0.7 -- -- 93
2019-06-03 07:00:00 15.1 3 Oeste 11 Oeste 0.1 -- -- 93
2019-06-03 06:00:00 15.3 2 Oeste 7 Oeste 0.2 -- -- 93
2019-06-03 05:00:00 15.4 0 Calma 6 Noroeste 0.1 -- -- 93
2019-06-03 04:00:00 15.5 0 Calma 5 Oeste 0 -- -- 93
2019-06-03 03:00:00 15.6 0 Calma 9 Oeste 0 -- -- 93
2019-06-03 02:00:00 15.6 0 Calma 9 Oeste 0 -- -- 91
2019-06-03 01:00:00 15.9 4 Oeste 12 Oeste 0 -- -- 86
2019-06-03 00:00:00 15.8 3 Oeste 9 Oeste 0 -- -- 86
2019-06-02 23:00:00 15.8 3 Oeste 13 Oeste 0 -- -- 85
2019-06-02 22:00:00 16.2 4 Oeste 15 Oeste 0 -- -- 81
2019-06-02 21:00:00 16.9 4 Oeste 14 Oeste 0 -- -- 76
2019-06-02 20:00:00 17.4 8 Oeste 19 Oeste 0 -- -- 70
2019-06-02 19:00:00 18.3 6 Oeste 19 Oeste 0 -- -- 59
2019-06-02 18:00:00 21.2 5 Oeste 17 Oeste 0 -- -- 55
2019-06-02 17:00:00 22.3 8 Oeste 20 Sudoeste 0 -- -- 50
2019-06-02 16:00:00 22.7 7 Oeste 18 Oeste 0 -- -- 45
2019-06-02 15:00:00 22.6 6 Oeste 20 Oeste 0 -- -- 55
2019-06-02 14:00:00 21.1 6 Oeste 15 Oeste 0 -- -- 61
2019-06-02 13:00:00 20.1 4 Oeste 16 Oeste 0 -- -- 68
2019-06-02 12:00:00 18.9 6 Oeste 15 Oeste 0 -- -- 74
2019-06-02 11:00:00 15.7 5 Oeste 12 Sudoeste 0 -- -- 85
2019-06-02 10:00:00 14.5 4 Oeste 11 Oeste 0 -- -- 90
2019-06-02 09:00:00 13 3 Oeste 10 Oeste 0 -- -- 94
2019-06-02 08:00:00 11.5 0 Calma 10 Nordeste 0 -- -- 90
2019-06-02 07:00:00 10.1 8 Nordeste 13 Nordeste 0 -- -- 90
2019-06-02 06:00:00 10.6 3 Nordeste 9 Nordeste 0 -- -- 86
2019-06-02 05:00:00 11.8 3 Este 9 Nordeste 0 -- -- 81
2019-06-02 04:00:00 13 0 Calma 14 Nordeste 0 -- -- 77
2019-06-02 03:00:00 13.8 5 Nordeste 13 Nordeste 0 -- -- 74
2019-06-02 02:00:00 14.1 0 Calma 5 Oeste 0 -- -- 70
2019-06-02 01:00:00 15.5 2 Oeste 8 Oeste 0 -- -- 64
2019-06-02 00:00:00 16 2 Noroeste 5 Oeste 0 -- -- 58
2019-06-01 23:00:00 17.5 2 Oeste 8 Oeste 0 -- -- 52
2019-06-01 22:00:00 18.9 0 Calma 9 Oeste 0 -- -- 44
2019-06-01 21:00:00 23 0 Calma 12 Oeste 0 -- -- 39
2019-06-01 20:00:00 25.5 5 Oeste 20 Oeste 0 -- -- 35
2019-06-01 19:00:00 27.2 8 Oeste 20 Oeste 0 -- -- 31
2019-06-01 18:00:00 28.8 7 Oeste 21 Oeste 0 -- -- 31
2019-06-01 17:00:00 29.5 6 Oeste 20 Oeste 0 -- -- 33
2019-06-01 16:00:00 29.2 9 Oeste 23 Oeste 0 -- -- 36
2019-06-01 15:00:00 29.8 6 Oeste 19 Oeste 0 -- -- 37
2019-06-01 14:00:00 29.5 3 Sudoeste 12 Oeste 0 -- -- 39
2019-06-01 13:00:00 27.8 3 Oeste 9 Sudoeste 0 -- -- 42
2019-06-01 12:00:00 25 5 Este 16 Este 0 -- -- 44
2019-06-01 11:00:00 22.5 9 Este 19 Este 0 -- -- 53
2019-06-01 10:00:00 19.7 11 Este 24 Nordeste 0 -- -- 64
2019-06-01 09:00:00 16.1 15 Nordeste 25 Este 0 -- -- 77
2019-06-01 08:00:00 12.7 13 Nordeste 21 Este 0 -- -- 90
2019-06-01 07:00:00 11.6 12 Nordeste 19 Nordeste 0 -- -- 91
2019-06-01 06:00:00 11.5 9 Nordeste 17 Este 0 -- -- 88
2019-06-01 05:00:00 12.7 10 Nordeste 21 Este 0 -- -- 83
2019-06-01 04:00:00 13.7 17 Nordeste 22 Este 0 -- -- 79
2019-06-01 03:00:00 14.3 13 Este 17 Nordeste 0 -- -- 75
2019-06-01 02:00:00 15.5 8 Este 21 Nordeste 0 -- -- 68
2019-06-01 01:00:00 16.2 6 Este 11 Nordeste 0 -- -- 60
2019-06-01 00:00:00 17.8 5 Nordeste 17 Este 0 -- -- 55
2019-05-31 23:00:00 19.4 8 Nordeste 17 Nordeste 0 -- -- 48
2019-05-31 22:00:00 22.9 3 Nordeste 9 Oeste 0 -- -- 42
2019-05-31 21:00:00 24.7 4 Oeste 14 Oeste 0 -- -- 41
2019-05-31 20:00:00 27 7 Oeste 19 Oeste 0 -- -- 34
2019-05-31 19:00:00 28.5 7 Oeste 25 Oeste 0 -- -- 32
2019-05-31 18:00:00 29.1 10 Oeste 31 Oeste 0 -- -- 31
2019-05-31 17:00:00 30.7 9 Oeste 32 Sudoeste 0 -- -- 31
2019-05-31 16:00:00 30.8 13 Oeste 34 Oeste 0 -- -- 31
2019-05-31 15:00:00 33.3 10 Oeste 27 Oeste 0 -- -- 29
2019-05-31 14:00:00 32.4 5 Oeste 12 Oeste 0 -- -- 32
2019-05-31 13:00:00 30.5 2 Sudoeste 8 Sudeste 0 -- -- 44
2019-05-31 12:00:00 27.8 3 Este 8 Sur 0 -- -- 44
2019-05-31 11:00:00 24.6 5 Este 13 Este 0 -- -- 55
2019-05-31 10:00:00 21.6 9 Este 16 Este 0 -- -- 63
2019-05-31 09:00:00 18 9 Este 22 Este 0 -- -- 73
2019-05-31 08:00:00 15.1 15 Este 24 Nordeste 0 -- -- 83
2019-05-31 07:00:00 14 20 Nordeste 24 Este 0 -- -- 83
2019-05-31 06:00:00 14 16 Este 27 Este 0 -- -- 83
2019-05-31 05:00:00 15.2 12 Nordeste 19 Nordeste 0 -- -- 78
2019-05-31 04:00:00 16.2 5 Nordeste 20 Nordeste 0 -- -- 72
2019-05-31 03:00:00 16.1 9 Nordeste 15 Nordeste 0 -- -- 70
2019-05-31 02:00:00 17.4 7 Nordeste 18 Este 0 -- -- 65
2019-05-31 01:00:00 18.2 14 Este 20 Este 0 -- -- 60
2019-05-31 00:00:00 19.9 11 Este 15 Este 0 -- -- 50
2019-05-30 23:00:00 22.6 4 Nordeste 9 Nordeste 0 -- -- 40
2019-05-30 22:00:00 23.6 5 Nordeste 14 Nordeste 0 -- -- 40
2019-05-30 21:00:00 26.2 10 Nordeste 24 Nordeste 0 -- -- 36
2019-05-30 20:00:00 28.3 13 Nordeste 25 Nordeste 0 -- -- 34
2019-05-30 19:00:00 29.8 3 Oeste 14 Noroeste 0 -- -- 37
2019-05-30 18:00:00 32 4 Oeste 12 Oeste 0 -- -- 35
2019-05-30 17:00:00 31.7 5 Oeste 14 Oeste 0 -- -- 34
2019-05-30 16:00:00 32 3 Sudoeste 11 Oeste 0 -- -- 35
2019-05-30 15:00:00 30.9 4 Oeste 12 Sudoeste 0 -- -- 36
2019-05-30 14:00:00 29.5 5 Sudoeste 11 Sudoeste 0 -- -- 38
2019-05-30 13:00:00 27.5 5 Sudeste 17 Este 0 -- -- 39
2019-05-30 12:00:00 25.5 12 Este 20 Este 0 -- -- 49
2019-05-30 11:00:00 22.5 13 Este 21 Este 0 -- -- 55
2019-05-30 10:00:00 19.6 12 Este 23 Este 0 -- -- 63
2019-05-30 09:00:00 16.1 14 Este 25 Este 0 -- -- 77
2019-05-30 08:00:00 13.3 17 Este 24 Este 0 -- -- 89
2019-05-30 07:00:00 12.1 14 Este 22 Este 0 -- -- 90
2019-05-30 06:00:00 12.6 9 Este 26 Este 0 -- -- 87
2019-05-30 05:00:00 13.7 10 Este 19 Nordeste 0 -- -- 83
2019-05-30 04:00:00 14.3 0 Calma 15 Nordeste 0 -- -- 82
2019-05-30 03:00:00 14.7 7 Este 10 Este 0 -- -- 79
2019-05-30 02:00:00 16 5 Este 23 Este 0 -- -- 75
2019-05-30 01:00:00 16.3 15 Este 26 Este 0 -- -- 75
2019-05-30 00:00:00 17.7 11 Este 22 Este 0 -- -- 68
2019-05-29 23:00:00 19.7 11 Este 27 Sudeste 0 -- -- 59
2019-05-29 22:00:00 21 2 Sudoeste 30 Nordeste 0 -- -- 54
2019-05-29 21:00:00 23.2 12 Nordeste 26 Nordeste 0 -- -- 49
2019-05-29 20:00:00 25.1 13 Nordeste 28 Este 0 -- -- 44
2019-05-29 19:00:00 26.4 14 Nordeste 27 Nordeste 0 -- -- 42
2019-05-29 18:00:00 27.6 12 Este 26 Este 0 -- -- 40
2019-05-29 17:00:00 27.7 13 Este 31 Este 0 -- -- 38
2019-05-29 16:00:00 27.5 15 Este 31 Este 0 -- -- 38
2019-05-29 15:00:00 26.6 18 Este 32 Sudeste 0 -- -- 38
2019-05-29 14:00:00 25 24 Este 39 Este 0 -- -- 40
2019-05-29 13:00:00 24.3 21 Este 40 Este 0 -- -- 42
2019-05-29 12:00:00 21.6 24 Este 37 Este 0 -- -- 46
2019-05-29 11:00:00 19.6 19 Este 38 Este 0 -- -- 53
2019-05-29 10:00:00 16.5 20 Este 32 Este 0 -- -- 60
2019-05-29 09:00:00 13.9 19 Este 28 Este 0 -- -- 70
2019-05-29 08:00:00 10.6 18 Este 27 Este 0 -- -- 82
2019-05-29 07:00:00 8.8 17 Este 23 Este 0 -- -- 85
2019-05-29 06:00:00 9.6 13 Este 21 Este 0 -- -- 83
2019-05-29 05:00:00 10 11 Este 21 Este 0 -- -- 81
2019-05-29 04:00:00 10.6 14 Este 27 Este 0 -- -- 78
2019-05-29 03:00:00 11 13 Este 24 Este 0 -- -- 77
2019-05-29 02:00:00 11.7 15 Este 26 Este 0 -- -- 76
2019-05-29 01:00:00 12.5 12 Este 27 Este 0 -- -- 75
2019-05-29 00:00:00 13.1 10 Este 25 Este 0 -- -- 74
2019-05-28 23:00:00 13.8 4 Este 28 Este 0 -- -- 70
2019-05-28 22:00:00 15.2 14 Nordeste 36 Nordeste 0 -- -- 61
2019-05-28 21:00:00 16.4 13 Nordeste 39 Este 0 -- -- 56
2019-05-28 20:00:00 18 16 Nordeste 35 Este 0 -- -- 50
2019-05-28 19:00:00 20 14 Nordeste 35 Este 0 -- -- 47
2019-05-28 18:00:00 21.4 15 Este 39 Este 0 -- -- 44
2019-05-28 17:00:00 21.7 21 Este 40 Este 0 -- -- 44
2019-05-28 16:00:00 21.8 19 Este 39 Nordeste 0 -- -- 43
2019-05-28 15:00:00 21.4 19 Este 41 Este 0 -- -- 42
2019-05-28 14:00:00 20.6 19 Este 43 Este 0 -- -- 44
2019-05-28 13:00:00 20 19 Este 41 Este 0 -- -- 47
2019-05-28 12:00:00 18 21 Este 41 Este 0 -- -- 53
2019-05-28 11:00:00 16.8 24 Este 37 Este 0 -- -- 61
2019-05-28 10:00:00 14.5 19 Este 34 Este 0 -- -- 69
2019-05-28 09:00:00 11.7 19 Este 30 Este 0 -- -- 79
2019-05-28 08:00:00 9.7 11 Este 20 Este 0 -- -- 88
2019-05-28 07:00:00 8.4 12 Este 23 Este 0 -- -- 89
2019-05-28 06:00:00 9.4 10 Este 27 Este 0 -- -- 86
2019-05-28 05:00:00 9.7 11 Este 23 Este 0 -- -- 85
2019-05-28 04:00:00 10 9 Este 22 Este 0 -- -- 84
2019-05-28 03:00:00 10.1 8 Este 18 Este 0 -- -- 84
2019-05-28 02:00:00 10.3 3 Este 27 Este 0 -- -- 83
2019-05-28 01:00:00 11.1 11 Este 23 Este 0 -- -- 79
2019-05-28 00:00:00 11.8 8 Este 39 Nordeste 0 -- -- 77
2019-05-27 23:00:00 11.4 5 Este 24 Este 0 -- -- 75
2019-05-27 22:00:00 12.6 10 Este 27 Este 0 -- -- 70
2019-05-27 21:00:00 13.8 10 Este 33 Nordeste 0 -- -- 66
2019-05-27 20:00:00 15.6 12 Nordeste 37 Nordeste 0 -- -- 60
2019-05-27 19:00:00 17.8 14 Nordeste 33 Nordeste 0 -- -- 55
2019-05-27 18:00:00 19.8 14 Nordeste 32 Nordeste 0 -- -- 52
2019-05-27 17:00:00 20.6 13 Nordeste 32 Nordeste 0 -- -- 52
2019-05-27 16:00:00 21.6 14 Este 31 Este 0 -- -- 49
2019-05-27 15:00:00 21.7 13 Este 33 Este 0 -- -- 49
2019-05-27 14:00:00 19.9 18 Este 35 Este 0 -- -- 52
2019-05-27 13:00:00 18 14 Este 28 Este 0 -- -- 60
2019-05-27 12:00:00 19.4 10 Este 31 Este 0 -- -- 61
2019-05-27 11:00:00 16.1 9 Este 17 Este 0 -- -- 81
2019-05-27 10:00:00 14.9 4 Este 13 Este 0 -- -- 84
2019-05-27 09:00:00 13.5 10 Este 16 Este 0 -- -- 86
2019-05-27 08:00:00 12.8 12 Nordeste 18 Este 0 -- -- 86
2019-05-27 07:00:00 12.5 8 Este 19 Este 0 -- -- 86
2019-05-27 06:00:00 12.9 11 Este 20 Este 0 -- -- 85
2019-05-27 05:00:00 12.9 13 Este 28 Este 0 -- -- 83
2019-05-27 04:00:00 13 13 Este 24 Este 0 -- -- 83
2019-05-27 03:00:00 12.9 10 Este 24 Este 0 -- -- 83
2019-05-27 02:00:00 12.7 12 Este 22 Este 0 -- -- 83
2019-05-27 01:00:00 13 13 Este 27 Nordeste 0 -- -- 81
2019-05-27 00:00:00 12.8 13 Nordeste 25 Nordeste 0 -- -- 80
2019-05-26 23:00:00 12.8 13 Este 34 Este 0 -- -- 78
2019-05-26 22:00:00 13.7 11 Norte 26 Nordeste 0 -- -- 72
2019-05-26 21:00:00 16.7 7 Nordeste 22 Norte 0 -- -- 63
2019-05-26 20:00:00 19.5 8 Nordeste 21 Nordeste 0 -- -- 55
2019-05-26 19:00:00 21.5 8 Nordeste 23 Nordeste 0 -- -- 50
2019-05-26 18:00:00 23.9 10 Nordeste 29 Este 0 -- -- 47
2019-05-26 17:00:00 24.6 14 Este 30 Este 0 -- -- 45
2019-05-26 16:00:00 24.4 14 Este 30 Este 0 -- -- 46
2019-05-26 15:00:00 23.7 14 Nordeste 30 Este 0 -- -- 47
2019-05-26 14:00:00 22.3 18 Este 32 Este 0 -- -- 51
2019-05-26 13:00:00 20.5 22 Este 33 Este 0 -- -- 53
2019-05-26 12:00:00 18.3 23 Este 37 Este 0 -- -- 60
2019-05-26 11:00:00 16.4 26 Este 37 Este 0 -- -- 66
2019-05-26 10:00:00 13.4 17 Este 28 Este 0 -- -- 77
2019-05-26 09:00:00 12.5 15 Este 27 Este 0 -- -- 80
2019-05-26 08:00:00 10.4 12 Este 21 Este 0 -- -- 91
2019-05-26 07:00:00 9.7 8 Este 21 Este 0 -- -- 89
2019-05-26 06:00:00 10.2 5 Este 22 Este 0 -- -- 88
2019-05-26 05:00:00 10.6 8 Este 20 Este 0 -- -- 88
2019-05-26 04:00:00 10.8 9 Este 26 Este 0 -- -- 87
2019-05-26 03:00:00 11 10 Este 23 Este 0 -- -- 85
2019-05-26 02:00:00 11.6 9 Este 24 Sudeste 0 -- -- 83
2019-05-26 01:00:00 12.6 16 Este 34 Este 0 -- -- 78
2019-05-26 00:00:00 13.2 12 Este 28 Este 0 -- -- 73
2019-05-25 23:00:00 14.2 12 Este 31 Este 0 -- -- 68
2019-05-25 22:00:00 15.4 12 Este 27 Este 0 -- -- 63
2019-05-25 21:00:00 17.4 5 Este 26 Este 0 -- -- 57
2019-05-25 20:00:00 19.2 9 Nordeste 31 Nordeste 0 -- -- 53
2019-05-25 19:00:00 21 13 Nordeste 30 Este 0 -- -- 50
2019-05-25 18:00:00 23.1 14 Nordeste 32 Este 0 -- -- 47
2019-05-25 17:00:00 23.1 15 Este 36 Este 0 -- -- 46
2019-05-25 16:00:00 22.7 17 Este 38 Este 0 -- -- 46
2019-05-25 15:00:00 22.8 14 Este 34 Este 0 -- -- 47
2019-05-25 14:00:00 21.2 16 Este 33 Este 0 -- -- 49
2019-05-25 13:00:00 20.1 19 Este 36 Este 0 -- -- 51
2019-05-25 12:00:00 18.8 15 Este 31 Este 0 -- -- 53
2019-05-25 11:00:00 17.4 22 Este 39 Este 0 -- -- 55
2019-05-25 10:00:00 15.3 15 Este 35 Este 0 -- -- 66
2019-05-25 09:00:00 14.1 15 Este 25 Este 0 -- -- 76
2019-05-25 08:00:00 11.7 7 Este 18 Sudeste 0 -- -- 87
2019-05-25 07:00:00 10.3 6 Este 19 Este 0 -- -- 87
2019-05-25 06:00:00 10.6 7 Este 23 Este 0 -- -- 86
2019-05-25 05:00:00 11.3 13 Este 27 Este 0 -- -- 83
2019-05-25 04:00:00 11.2 7 Este 30 Nordeste 0 -- -- 82
2019-05-25 03:00:00 11.2 0 Calma 25 Este 0 -- -- 81
2019-05-25 02:00:00 11.9 9 Este 27 Este 0 -- -- 80
2019-05-25 01:00:00 11.9 5 Este 21 Nordeste 0 -- -- 79
2019-05-25 00:00:00 12.8 11 Nordeste 21 Este 0 -- -- 77
2019-05-24 23:00:00 13.3 8 Este 36 Nordeste 0 -- -- 75
2019-05-24 22:00:00 14.5 16 Nordeste 34 Este 0 -- -- 68
2019-05-24 21:00:00 16 15 Nordeste 40 Nordeste 0 -- -- 61
2019-05-24 20:00:00 17.5 17 Nordeste 34 Nordeste 0 -- -- 56
2019-05-24 19:00:00 18.9 16 Nordeste 39 Este 0 -- -- 53
2019-05-24 18:00:00 20.4 17 Nordeste 41 Este 0 -- -- 48
2019-05-24 17:00:00 20 19 Este 49 Este 0 -- -- 47
2019-05-24 16:00:00 19.2 23 Este 42 Este 0 -- -- 48
2019-05-24 15:00:00 19.4 19 Este 41 Este 0 -- -- 47
2019-05-24 14:00:00 18.3 22 Este 41 Este 0 -- -- 49
2019-05-24 13:00:00 17.6 17 Este 37 Este 0 -- -- 52
2019-05-24 12:00:00 16.8 24 Este 39 Este 0 -- -- 52
2019-05-24 11:00:00 14.6 19 Sudeste 31 Sudeste 0 -- -- 64
2019-05-24 10:00:00 13.6 8 Este 17 Este 0 -- -- 75
2019-05-24 09:00:00 9.7 9 Este 14 Este 0 -- -- 94
2019-05-24 08:00:00 7.6 9 Este 21 Nordeste 0 -- -- 94
2019-05-24 07:00:00 7.3 14 Nordeste 22 Nordeste 0 -- -- 94
2019-05-24 06:00:00 8 10 Nordeste 15 Nordeste 0 -- -- 93
2019-05-24 05:00:00 8.2 10 Nordeste 14 Este 0 -- -- 93
2019-05-24 04:00:00 8.5 7 Nordeste 13 Este 0 -- -- 91
2019-05-24 03:00:00 8.9 6 Nordeste 12 Este 0 -- -- 89
2019-05-24 02:00:00 9.9 8 Nordeste 13 Este 0 -- -- 87
2019-05-24 01:00:00 10 4 Nordeste 8 Nordeste 0 -- -- 84
2019-05-24 00:00:00 10.9 5 Nordeste 10 Este 0 -- -- 79
2019-05-23 23:00:00 12.3 6 Este 13 Este 0 -- -- 72
2019-05-23 22:00:00 14 2 Nordeste 23 Este 0 -- -- 61
2019-05-23 21:00:00 15.8 4 Este 14 Norte 0 -- -- 56
2019-05-23 20:00:00 17.1 3 Norte 21 Norte 0 -- -- 53
2019-05-23 19:00:00 19.2 4 Nordeste 21 Norte 0 -- -- 47
2019-05-23 18:00:00 20.2 7 Norte 22 Norte 0 -- -- 45
2019-05-23 17:00:00 21.3 2 Noroeste 15 Norte 0 -- -- 47
2019-05-23 16:00:00 21 3 Noroeste 14 Oeste 0 -- -- 46
2019-05-23 15:00:00 20.5 0 Calma 14 Noroeste 0 -- -- 49
2019-05-23 14:00:00 19.6 4 Oeste 16 Oeste 0 -- -- 50
2019-05-23 13:00:00 19.8 3 Oeste 12 Oeste 0 -- -- 54
2019-05-23 12:00:00 18.6 0 Calma 12 Sur 0 -- -- 63
2019-05-23 11:00:00 16.5 3 Oeste 8 Oeste 0 -- -- 79
2019-05-23 10:00:00 13.4 0 Calma 5 Nordeste 0 -- -- 89
2019-05-23 09:00:00 12 5 Nordeste 8 Nordeste 0 -- -- 89
2019-05-23 08:00:00 11.4 4 Nordeste 8 Nordeste 0 -- -- 90
2019-05-23 07:00:00 11.2 6 Nordeste 10 Nordeste 0 -- -- 90
2019-05-23 06:00:00 11.3 0 Calma 11 Nordeste 0 -- -- 90
2019-05-23 05:00:00 11.3 0 Calma 3 Sur 0 -- -- 90
2019-05-23 04:00:00 11.6 0 Calma 4 Norte 0 -- -- 89
2019-05-23 03:00:00 11.6 0 Calma 4 Norte 0 -- -- 87
2019-05-23 02:00:00 12.1 0 Calma 11 Oeste 0 -- -- 83
2019-05-23 01:00:00 12.4 0 Calma 7 Sudoeste 0 -- -- 78
2019-05-23 00:00:00 13.2 4 Sudoeste 11 Sudoeste 0 -- -- 76
2019-05-22 23:00:00 13.4 0 Calma 10 Oeste 0 -- -- 72
2019-05-22 22:00:00 15 3 Noroeste 8 Oeste 0 -- -- 64
2019-05-22 21:00:00 17.6 3 Noroeste 14 Oeste 0 -- -- 55
2019-05-22 20:00:00 19.5 5 Oeste 22 Noroeste 0 -- -- 50
2019-05-22 19:00:00 20.7 8 Oeste 21 Oeste 0 -- -- 49
2019-05-22 18:00:00 22.8 8 Oeste 22 Oeste 0 -- -- 44
2019-05-22 17:00:00 22.7 7 Oeste 21 Oeste 0 -- -- 46
2019-05-22 16:00:00 22.8 6 Oeste 26 Oeste 0 -- -- 46
2019-05-22 15:00:00 22.7 7 Oeste 20 Oeste 0 -- -- 50
2019-05-22 14:00:00 21.5 8 Oeste 24 Oeste 0 -- -- 49
2019-05-22 13:00:00 21.4 5 Oeste 15 Oeste 0 -- -- 50
2019-05-22 12:00:00 19.5 4 Oeste 10 Oeste 0 -- -- 53
2019-05-22 11:00:00 17.4 3 Este 17 Este 0 -- -- 60
2019-05-22 10:00:00 15.3 10 Este 19 Este 0 -- -- 66
2019-05-22 09:00:00 12.3 14 Este 24 Este 0 -- -- 82
2019-05-22 08:00:00 9.2 15 Este 21 Este 0 -- -- 93
2019-05-22 07:00:00 8.4 16 Este 24 Este 0 -- -- 92
2019-05-22 06:00:00 9.1 12 Nordeste 20 Este 0 -- -- 91
2019-05-22 05:00:00 9.2 11 Este 19 Nordeste 0 -- -- 90
2019-05-22 04:00:00 10.2 11 Nordeste 20 Este 0 -- -- 88
2019-05-22 03:00:00 11.3 9 Nordeste 15 Nordeste 0 -- -- 86
2019-05-22 02:00:00 11.7 4 Nordeste 9 Nordeste 0 -- -- 80
2019-05-22 01:00:00 12.9 7 Nordeste 9 Nordeste 0 -- -- 71
2019-05-22 00:00:00 14 4 Nordeste 9 Nordeste 0 -- -- 64
2019-05-21 23:00:00 15.8 4 Nordeste 9 Este 0 -- -- 56
2019-05-21 22:00:00 17.2 5 Norte 14 Norte 0 -- -- 53
2019-05-21 21:00:00 19.9 0 Calma 16 Norte 0 -- -- 48
2019-05-21 20:00:00 21.1 4 Norte 14 Norte 0 -- -- 49
2019-05-21 19:00:00 21.9 4 Oeste 10 Este 0 -- -- 44
2019-05-21 18:00:00 24.6 3 Norte 12 Nordeste 0 -- -- 38
2019-05-21 17:00:00 23.6 4 Nordeste 22 Este 0 -- -- 40
2019-05-21 16:00:00 24 6 Este 20 Este 0 -- -- 40
2019-05-21 15:00:00 23.7 4 Este 16 Este 0 -- -- 42
2019-05-21 14:00:00 21.4 5 Sudeste 21 Este 0 -- -- 43
2019-05-21 13:00:00 20.9 9 Este 19 Este 0 -- -- 44
2019-05-21 12:00:00 19.7 8 Este 17 Este 0 -- -- 50
2019-05-21 11:00:00 16.9 7 Este 16 Este 0 -- -- 57
2019-05-21 10:00:00 14.7 9 Este 15 Este 0 -- -- 66
2019-05-21 09:00:00 12 7 Este 16 Este 0 -- -- 78
2019-05-21 08:00:00 9.1 6 Este 15 Nordeste 0 -- -- 86
2019-05-21 07:00:00 8.1 11 Nordeste 15 Nordeste 0 -- -- 86
2019-05-21 06:00:00 9.2 7 Este 12 Este 0 -- -- 81
2019-05-21 05:00:00 10.1 8 Nordeste 12 Nordeste 0 -- -- 77
2019-05-21 04:00:00 10.4 5 Nordeste 8 Nordeste 0 -- -- 75
2019-05-21 03:00:00 10.4 8 Nordeste 11 Nordeste 0 -- -- 73
2019-05-21 02:00:00 11 0 Calma 8 Nordeste 0 -- -- 69
2019-05-21 01:00:00 11.5 6 Nordeste 9 Nordeste 0 -- -- 66
2019-05-21 00:00:00 12.2 0 Calma 4 Nordeste 0 -- -- 63